EYKA/KUN METAR and TAF weather

Enter ICAO airport designator
Station Type Date Time Source
EYKA METAR 2024/04/15 09:20 UTC NOAA

EYKA 150920Z 28012KT 250V320 9999 SCT038 BKN046 09/01 Q1005


Station Type Date Time Source
EYKA Decoded METAR 2024/04/15 09:20 UTC NOAA

Kaunas, Lithuania (EYKA) 54-54N 023-55-12E
Apr 15, 2024 - 05:20 AM EDT / 2024.04.15 0920 UTC
Wind: from the W (280 degrees) at 14 MPH (12 KT) (direction variable):0
Visibility: greater than 7 mile(s):0
Sky conditions: mostly cloudy
Temperature: 48 F (9 C)
Dew Point: 33 F (1 C)
Relative Humidity: 57%
Pressure (altimeter): 29.68 in. Hg (1005 hPa)
ob: EYKA 150920Z 28012KT 250V320 9999 SCT038 BKN046 09/01 Q1005
cycle: 9

Station Type Date Time Source
EYKA TAF 2024/04/15 06:06 UTC NOAA